createdAt,value
2018-12-22T00:02:21.599Z,10.50
2018-12-22T00:04:48.738Z,10.50
2018-12-22T00:07:16.079Z,10.50
2018-12-22T00:09:43.219Z,10.60
2018-12-22T00:12:10.334Z,10.60
2018-12-22T00:14:37.475Z,10.60
2018-12-22T00:17:04.606Z,10.60
2018-12-22T00:19:31.766Z,10.60
2018-12-22T00:21:58.902Z,10.60
2018-12-22T00:24:26.048Z,10.60
2018-12-22T00:26:53.175Z,10.70
2018-12-22T00:29:20.611Z,10.80
2018-12-22T00:31:47.856Z,10.70
2018-12-22T00:34:15.002Z,10.70
2018-12-22T00:36:42.122Z,10.80
2018-12-22T00:39:09.276Z,10.70
2018-12-22T00:41:36.414Z,10.60
2018-12-22T00:44:03.658Z,10.70
2018-12-22T00:46:30.793Z,10.60
2018-12-22T00:48:57.950Z,10.70
2018-12-22T00:51:25.207Z,10.70
2018-12-22T00:53:52.338Z,10.70
2018-12-22T00:56:19.490Z,10.80
2018-12-22T00:58:46.808Z,10.70
2018-12-22T01:01:14.012Z,10.70
2018-12-22T01:03:41.146Z,10.70
2018-12-22T01:06:08.413Z,10.70
2018-12-22T01:08:35.533Z,10.60
2018-12-22T01:11:02.827Z,10.50
2018-12-22T01:13:29.958Z,10.40
2018-12-22T01:15:57.218Z,10.30
2018-12-22T01:18:24.356Z,10.30
2018-12-22T01:20:51.483Z,10.30
2018-12-22T01:23:18.675Z,10.20
2018-12-22T01:25:46.029Z,10.20
2018-12-22T01:28:13.149Z,10.20
2018-12-22T01:30:40.326Z,10.10
2018-12-22T01:33:07.454Z,10.10
2018-12-22T01:35:34.600Z,10.10
2018-12-22T01:38:01.778Z,10.20
2018-12-22T01:40:29.040Z,10.20
2018-12-22T01:42:56.498Z,10.30
2018-12-22T01:45:24.126Z,10.20
2018-12-22T01:47:51.267Z,10.30
2018-12-22T01:50:18.526Z,10.30
2018-12-22T01:52:45.659Z,10.30
2018-12-22T01:55:12.966Z,10.30
2018-12-22T01:57:40.087Z,10.30
2018-12-22T02:00:08.967Z,10.30
2018-12-22T02:02:36.267Z,10.40
2018-12-22T02:05:04.276Z,10.40
2018-12-22T02:07:31.418Z,10.40
2018-12-22T02:09:58.551Z,10.40
2018-12-22T02:12:25.772Z,10.40
2018-12-22T02:14:52.964Z,10.40
2018-12-22T02:17:20.111Z,10.40
2018-12-22T02:19:47.820Z,10.40
2018-12-22T02:22:21.707Z,10.40
2018-12-22T02:24:48.836Z,10.40
2018-12-22T02:27:15.966Z,10.40
2018-12-22T02:29:43.093Z,10.30
2018-12-22T02:32:10.367Z,10.30
2018-12-22T02:34:37.812Z,10.40
2018-12-22T02:37:05.229Z,10.40
2018-12-22T02:39:32.359Z,10.40
2018-12-22T02:41:59.716Z,10.50
2018-12-22T02:44:26.956Z,10.50
2018-12-22T02:46:54.286Z,10.50
2018-12-22T02:49:21.415Z,10.50
2018-12-22T02:51:48.786Z,10.50
2018-12-22T02:54:16.086Z,10.50
2018-12-22T02:56:43.228Z,10.50
2018-12-22T02:59:10.364Z,10.50
2018-12-22T03:01:37.491Z,10.50
2018-12-22T03:04:04.686Z,10.40
2018-12-22T03:06:31.812Z,10.40
2018-12-22T03:08:58.962Z,10.40
2018-12-22T03:11:26.110Z,10.40
2018-12-22T03:13:53.355Z,10.40
2018-12-22T03:18:54.507Z,10.50
2018-12-22T03:21:21.630Z,10.40
2018-12-22T03:23:49.006Z,10.40
2018-12-22T03:26:16.933Z,10.40
2018-12-22T03:28:44.159Z,10.40
2018-12-22T03:31:11.332Z,10.40
2018-12-22T03:33:38.476Z,10.50
2018-12-22T03:36:05.785Z,10.70
2018-12-22T03:38:32.927Z,10.70
2018-12-22T03:41:07.075Z,10.70
2018-12-22T03:43:34.358Z,10.70
2018-12-22T03:46:01.475Z,10.60
2018-12-22T03:48:28.706Z,10.60
2018-12-22T03:50:55.837Z,10.60
2018-12-22T03:53:22.998Z,10.60
2018-12-22T03:55:50.127Z,10.60
2018-12-22T03:58:17.258Z,10.60
2018-12-22T04:00:44.447Z,10.50
2018-12-22T04:03:12.038Z,10.60
2018-12-22T04:05:39.354Z,10.70
2018-12-22T04:08:06.754Z,10.70
2018-12-22T04:10:40.850Z,10.80
2018-12-22T04:13:08.074Z,10.90
2018-12-22T04:15:35.211Z,10.80
2018-12-22T04:18:02.359Z,10.70
2018-12-22T04:20:29.584Z,10.70
2018-12-22T04:22:56.711Z,10.60
2018-12-22T04:25:23.940Z,10.60
2018-12-22T04:27:51.071Z,10.60
2018-12-22T04:30:18.467Z,10.60
2018-12-22T04:32:45.601Z,10.50
2018-12-22T04:35:12.862Z,10.50
2018-12-22T04:37:40.223Z,10.40
2018-12-22T04:40:07.496Z,10.40
2018-12-22T04:42:34.643Z,10.40
2018-12-22T04:45:01.885Z,10.40
2018-12-22T04:47:29.047Z,10.40
2018-12-22T04:49:56.288Z,10.50
2018-12-22T04:52:23.416Z,10.50
2018-12-22T04:54:50.683Z,10.50
2018-12-22T04:57:17.814Z,10.60
2018-12-22T04:59:45.071Z,10.60
2018-12-22T05:02:12.206Z,10.70
2018-12-22T05:04:39.344Z,10.60
2018-12-22T05:07:06.594Z,10.60
2018-12-22T05:09:33.729Z,10.70
2018-12-22T05:12:00.854Z,10.60
2018-12-22T05:14:27.990Z,10.60
2018-12-22T05:16:55.132Z,10.60
2018-12-22T05:19:22.362Z,10.70
2018-12-22T05:21:49.506Z,10.70
2018-12-22T05:24:16.662Z,10.70
2018-12-22T05:26:43.812Z,10.70
2018-12-22T05:29:10.988Z,10.80
2018-12-22T05:31:38.106Z,10.90
2018-12-22T05:34:05.469Z,10.90
2018-12-22T05:36:32.619Z,11.00
2018-12-22T05:38:59.778Z,10.90
2018-12-22T05:41:26.904Z,11.00
2018-12-22T05:43:54.030Z,11.10
2018-12-22T05:46:21.158Z,11.00
2018-12-22T05:48:48.302Z,11.00
2018-12-22T05:51:15.582Z,11.20
2018-12-22T05:53:42.706Z,11.30
2018-12-22T05:56:09.926Z,11.20
2018-12-22T05:58:37.086Z,11.20
2018-12-22T06:01:04.282Z,11.30
2018-12-22T06:03:31.666Z,11.30
2018-12-22T06:05:58.906Z,11.30
2018-12-22T06:08:26.163Z,11.30
2018-12-22T06:10:53.292Z,11.40
2018-12-22T06:13:20.497Z,11.30
2018-12-22T06:15:47.628Z,11.50
2018-12-22T06:18:14.765Z,11.40
2018-12-22T06:20:41.908Z,11.40
2018-12-22T06:23:09.049Z,11.40
2018-12-22T06:25:36.173Z,11.30
2018-12-22T06:28:03.446Z,11.30
2018-12-22T06:30:30.576Z,11.20
2018-12-22T06:32:57.733Z,11.20
2018-12-22T06:35:24.868Z,11.20
2018-12-22T06:37:52.106Z,11.20
2018-12-22T06:40:19.475Z,11.30
2018-12-22T06:42:46.626Z,11.30
2018-12-22T06:45:13.767Z,11.30
2018-12-22T06:47:40.998Z,11.40
2018-12-22T06:50:08.129Z,11.30
2018-12-22T06:52:35.256Z,11.20
2018-12-22T06:55:02.641Z,11.10
2018-12-22T06:57:29.759Z,11.10
2018-12-22T06:59:56.935Z,11.20
2018-12-22T07:02:24.113Z,11.20
2018-12-22T07:04:51.399Z,11.20
2018-12-22T07:07:18.529Z,11.20
2018-12-22T07:09:45.764Z,11.20
2018-12-22T07:12:12.942Z,11.30
2018-12-22T07:14:40.184Z,11.30
2018-12-22T07:17:07.474Z,11.30
2018-12-22T07:19:34.758Z,11.30
2018-12-22T07:22:02.076Z,11.30
2018-12-22T07:24:29.302Z,11.20
2018-12-22T07:26:56.554Z,11.20
2018-12-22T07:29:23.730Z,11.10
2018-12-22T07:31:51.006Z,11.10
2018-12-22T07:34:18.141Z,11.20
2018-12-22T07:36:45.466Z,11.20
2018-12-22T07:39:12.667Z,11.20
2018-12-22T07:41:39.820Z,11.10
2018-12-22T07:44:07.082Z,11.10
2018-12-22T07:46:34.304Z,11.00
2018-12-22T07:49:01.616Z,10.90
2018-12-22T07:51:28.904Z,10.90
2018-12-22T07:53:56.357Z,10.80
2018-12-22T07:56:23.870Z,10.80
2018-12-22T07:58:51.076Z,10.90
2018-12-22T08:01:19.876Z,11.00
2018-12-22T08:03:47.340Z,11.00
2018-12-22T08:06:14.481Z,11.00
2018-12-22T08:08:41.845Z,11.10
2018-12-22T08:11:08.990Z,11.10
2018-12-22T08:13:36.168Z,11.10
2018-12-22T08:16:03.597Z,11.10
2018-12-22T08:18:30.809Z,11.00
2018-12-22T08:20:58.180Z,11.10
2018-12-22T08:23:25.422Z,11.10
2018-12-22T08:25:52.644Z,11.10
2018-12-22T08:28:19.899Z,11.10
2018-12-22T08:30:47.062Z,11.10
2018-12-22T08:33:14.425Z,11.10
2018-12-22T08:35:41.673Z,11.20
2018-12-22T08:38:09.006Z,11.20
2018-12-22T08:40:36.177Z,11.40
2018-12-22T08:43:03.559Z,11.50
2018-12-22T08:45:30.844Z,11.40
2018-12-22T08:47:58.034Z,11.50
2018-12-22T08:50:25.310Z,11.50
2018-12-22T08:52:52.543Z,11.60
2018-12-22T08:55:19.702Z,11.50
2018-12-22T08:57:47.027Z,11.60
2018-12-22T09:00:14.215Z,11.60
2018-12-22T09:02:41.548Z,11.60
2018-12-22T09:05:09.051Z,11.60
2018-12-22T09:07:36.258Z,11.60
2018-12-22T09:10:04.063Z,11.60
2018-12-22T09:12:31.213Z,11.60
2018-12-22T09:14:58.455Z,11.60
2018-12-22T09:17:25.966Z,11.60
2018-12-22T09:19:53.151Z,11.60
2018-12-22T09:22:20.480Z,11.60
2018-12-22T09:24:47.618Z,11.70
2018-12-22T09:27:14.790Z,11.60
2018-12-22T09:29:42.038Z,11.70
2018-12-22T09:32:09.170Z,11.70
2018-12-22T09:34:36.315Z,11.80
2018-12-22T09:37:03.666Z,11.90
2018-12-22T09:39:30.800Z,11.90
2018-12-22T09:41:57.936Z,11.90
2018-12-22T09:44:25.162Z,12.00
2018-12-22T09:46:52.495Z,12.10
2018-12-22T09:49:19.883Z,12.00
2018-12-22T09:51:47.139Z,12.00
2018-12-22T09:54:14.634Z,12.00
2018-12-22T09:56:41.987Z,11.90
2018-12-22T09:59:09.159Z,11.90
2018-12-22T10:01:36.463Z,11.90
2018-12-22T10:04:03.781Z,12.00
2018-12-22T10:06:30.960Z,11.90
2018-12-22T10:08:58.187Z,11.90
2018-12-22T10:11:25.434Z,12.00
2018-12-22T10:13:52.692Z,12.00
2018-12-22T10:16:19.951Z,12.00
2018-12-22T10:18:47.218Z,12.00
2018-12-22T10:21:14.475Z,12.00
2018-12-22T10:23:41.595Z,12.00
2018-12-22T10:26:08.746Z,12.00
2018-12-22T10:28:35.870Z,12.20
2018-12-22T10:31:02.997Z,12.20
2018-12-22T10:33:30.195Z,12.20
2018-12-22T10:35:57.334Z,12.20
2018-12-22T10:38:24.486Z,12.30
2018-12-22T10:40:51.650Z,12.40
2018-12-22T10:43:18.834Z,12.40
2018-12-22T10:45:46.015Z,12.50
2018-12-22T10:48:13.147Z,12.50
2018-12-22T10:50:40.262Z,12.60
2018-12-22T10:53:07.430Z,12.70
2018-12-22T10:55:34.559Z,12.70
2018-12-22T10:58:01.707Z,12.80
2018-12-22T11:00:29.078Z,12.80
2018-12-22T11:02:56.221Z,12.80
2018-12-22T11:05:23.403Z,12.90
2018-12-22T11:07:51.077Z,12.90
2018-12-22T11:10:22.844Z,12.80
2018-12-22T11:12:51.454Z,12.90
2018-12-22T11:15:18.754Z,12.90
2018-12-22T11:17:45.878Z,12.90
2018-12-22T11:20:13.039Z,12.90
2018-12-22T11:22:40.294Z,13.00
2018-12-22T11:25:12.914Z,13.10
2018-12-22T11:27:41.072Z,13.00
2018-12-22T11:30:11.746Z,12.90
2018-12-22T11:32:38.855Z,12.80
2018-12-22T11:35:06.218Z,12.90
2018-12-22T11:37:33.485Z,12.90
2018-12-22T11:40:00.724Z,12.90
2018-12-22T11:42:27.870Z,12.80
2018-12-22T11:44:54.986Z,12.70
2018-12-22T11:47:28.822Z,12.80
2018-12-22T11:49:56.166Z,12.80
2018-12-22T11:52:23.385Z,12.70
2018-12-22T11:54:51.383Z,12.70
2018-12-22T11:57:18.562Z,12.60
2018-12-22T11:59:45.834Z,12.70
2018-12-22T12:02:12.965Z,12.70
2018-12-22T12:04:42.042Z,12.70
2018-12-22T12:07:09.234Z,12.80
2018-12-22T12:09:36.354Z,12.80
2018-12-22T12:12:04.732Z,12.80
2018-12-22T12:14:32.183Z,12.80
2018-12-22T12:17:20.127Z,12.80
2018-12-22T12:19:47.327Z,12.80
2018-12-22T12:22:14.492Z,12.70
2018-12-22T12:24:41.742Z,12.60
2018-12-22T12:27:08.867Z,12.50
2018-12-22T12:29:36.042Z,12.50
2018-12-22T12:32:03.290Z,12.40
2018-12-22T12:34:30.444Z,12.30
2018-12-22T12:36:57.562Z,12.30
2018-12-22T12:39:31.560Z,12.40
2018-12-22T12:42:05.390Z,12.40
2018-12-22T12:44:32.790Z,12.30
2018-12-22T12:47:00.029Z,12.20
2018-12-22T12:49:27.154Z,12.30
2018-12-22T12:51:54.296Z,12.30
2018-12-22T12:54:21.549Z,12.00
2018-12-22T12:56:51.510Z,11.90
2018-12-22T12:59:18.670Z,11.80
2018-12-22T13:01:45.796Z,11.90
2018-12-22T13:04:13.042Z,12.00
2018-12-22T13:06:40.194Z,12.10
2018-12-22T13:09:08.009Z,12.20
2018-12-22T13:11:35.415Z,12.20
2018-12-22T13:14:07.893Z,12.20
2018-12-22T13:16:35.635Z,12.20
2018-12-22T13:19:03.036Z,12.10
2018-12-22T13:21:30.611Z,12.10
2018-12-22T13:23:57.842Z,12.10
2018-12-22T13:26:24.982Z,12.00
2018-12-22T13:28:52.186Z,11.80
2018-12-22T13:31:22.086Z,11.80
2018-12-22T13:33:49.335Z,11.60
2018-12-22T13:36:16.463Z,11.60
2018-12-22T13:38:52.739Z,11.50
2018-12-22T13:41:19.895Z,11.50
2018-12-22T13:43:47.270Z,11.40
2018-12-22T13:46:14.431Z,11.40
2018-12-22T13:48:41.817Z,11.40
2018-12-22T13:51:09.504Z,11.50
2018-12-22T13:53:37.058Z,11.50
2018-12-22T13:56:04.198Z,11.50
2018-12-22T13:58:31.480Z,11.50
2018-12-22T14:00:59.064Z,11.50
2018-12-22T14:03:32.380Z,11.50
2018-12-22T14:05:59.515Z,11.60
2018-12-22T14:08:27.562Z,11.60
2018-12-22T14:10:54.714Z,11.50
2018-12-22T14:13:21.874Z,11.30
2018-12-22T14:15:53.250Z,11.30
2018-12-22T14:18:28.586Z,11.30
2018-12-22T14:20:55.725Z,11.20
2018-12-22T14:23:26.050Z,11.20
2018-12-22T14:25:53.176Z,11.20
2018-12-22T14:28:20.323Z,11.30
2018-12-22T14:30:47.643Z,11.30
2018-12-22T14:33:15.604Z,11.20
2018-12-22T14:35:47.836Z,11.10
2018-12-22T14:38:15.078Z,11.10
2018-12-22T14:40:42.280Z,10.90
2018-12-22T14:43:09.413Z,11.00
2018-12-22T14:45:36.563Z,11.00
2018-12-22T14:48:03.807Z,10.90
2018-12-22T14:50:30.995Z,11.00
2018-12-22T14:52:58.118Z,10.90
2018-12-22T14:55:28.011Z,10.80
2018-12-22T14:57:57.967Z,10.70
2018-12-22T15:00:25.435Z,10.70
2018-12-22T15:02:52.562Z,10.70
2018-12-22T15:05:19.843Z,10.60
2018-12-22T15:07:47.348Z,10.60
2018-12-22T15:10:14.583Z,10.50
2018-12-22T15:12:42.932Z,10.50
2018-12-22T15:15:10.214Z,10.60
2018-12-22T15:17:38.114Z,10.60
2018-12-22T15:20:09.145Z,10.60
2018-12-22T15:22:36.320Z,10.50
2018-12-22T15:25:04.475Z,10.60
2018-12-22T15:27:32.685Z,10.50
2018-12-22T15:29:59.803Z,10.50
2018-12-22T15:32:26.974Z,10.50
2018-12-22T15:34:54.102Z,10.40
2018-12-22T15:37:21.380Z,10.30
2018-12-22T15:39:48.502Z,10.30
2018-12-22T15:42:15.628Z,10.30
2018-12-22T15:44:42.755Z,10.20
2018-12-22T15:47:09.903Z,10.20
2018-12-22T15:49:37.126Z,10.20
2018-12-22T15:52:04.370Z,10.20
2018-12-22T15:54:31.512Z,10.10
2018-12-22T15:56:58.758Z,10.10
2018-12-22T15:59:25.890Z,10.00
2018-12-22T16:01:53.028Z,9.90
2018-12-22T16:04:20.266Z,9.80
2018-12-22T16:06:47.398Z,9.70
2018-12-22T16:09:14.547Z,9.70
2018-12-22T16:11:41.910Z,9.50
2018-12-22T16:14:09.047Z,9.50
2018-12-22T16:16:36.197Z,9.50
2018-12-22T16:19:03.472Z,9.40
2018-12-22T16:21:30.602Z,9.40
2018-12-22T16:23:57.736Z,9.20
2018-12-22T16:26:25.020Z,9.10
2018-12-22T16:29:26.510Z,9.10
2018-12-22T16:31:53.753Z,9.00
2018-12-22T16:34:21.010Z,8.90
2018-12-22T16:36:48.258Z,8.90
2018-12-22T16:39:15.395Z,8.90
2018-12-22T16:41:42.688Z,8.90
2018-12-22T16:44:13.723Z,9.10
2018-12-22T16:46:41.075Z,9.20
2018-12-22T16:49:08.211Z,9.30
2018-12-22T16:51:36.215Z,9.30
2018-12-22T16:54:03.457Z,9.40
2018-12-22T16:56:30.598Z,9.40
2018-12-22T16:58:59.270Z,9.30
2018-12-22T17:01:36.178Z,9.30
2018-12-22T17:04:03.482Z,9.20
2018-12-22T17:06:31.481Z,9.20
2018-12-22T17:08:58.602Z,9.30
2018-12-22T17:11:25.740Z,9.30
2018-12-22T17:13:52.986Z,9.20
2018-12-22T17:16:20.150Z,9.30
2018-12-22T17:18:47.447Z,9.30
2018-12-22T17:22:24.359Z,9.20
2018-12-22T17:24:55.250Z,9.10
2018-12-22T17:27:22.575Z,9.10
2018-12-22T17:29:49.934Z,9.00
2018-12-22T17:32:17.067Z,9.00
2018-12-22T17:34:44.328Z,9.10
2018-12-22T17:37:12.582Z,9.10
2018-12-22T17:39:39.703Z,9.10
2018-12-22T17:42:07.071Z,9.20
2018-12-22T17:44:34.354Z,9.10
2018-12-22T17:47:01.478Z,9.30
2018-12-22T17:49:28.893Z,9.40
2018-12-22T17:51:56.066Z,9.50
2018-12-22T17:54:23.215Z,9.50
2018-12-22T17:56:50.518Z,9.50
2018-12-22T17:59:17.658Z,9.60
2018-12-22T18:01:44.808Z,9.70
2018-12-22T18:04:12.059Z,9.60
2018-12-22T18:06:39.223Z,9.70
2018-12-22T18:09:07.280Z,9.70
2018-12-22T18:11:34.485Z,9.80
2018-12-22T18:14:01.696Z,9.80
2018-12-22T18:16:28.896Z,9.80
2018-12-22T18:18:56.098Z,9.80
2018-12-22T18:21:23.354Z,9.80
2018-12-22T18:23:50.570Z,9.90
2018-12-22T18:26:18.216Z,9.90
2018-12-22T18:28:45.364Z,9.90
2018-12-22T18:31:12.486Z,10.00
2018-12-22T18:33:39.615Z,10.10
2018-12-22T18:36:06.745Z,10.10
2018-12-22T18:38:33.927Z,10.20
2018-12-22T18:41:01.738Z,10.10
2018-12-22T18:43:28.931Z,10.10
2018-12-22T18:45:56.106Z,10.10
2018-12-22T18:48:23.347Z,10.00
2018-12-22T18:50:50.591Z,9.90
2018-12-22T18:53:17.825Z,9.90
2018-12-22T18:55:44.974Z,9.80
2018-12-22T18:58:12.362Z,9.80
2018-12-22T19:00:39.604Z,9.70
2018-12-22T19:03:06.928Z,9.70
2018-12-22T19:05:34.187Z,9.70
2018-12-22T19:08:08.314Z,9.70
2018-12-22T19:10:39.226Z,9.60
2018-12-22T19:13:06.442Z,9.60
2018-12-22T19:15:33.803Z,9.60
2018-12-22T19:18:01.030Z,9.50
2018-12-22T19:20:34.407Z,9.50
2018-12-22T19:23:01.542Z,9.50
2018-12-22T19:25:28.728Z,9.40
2018-12-22T19:27:55.974Z,9.40
2018-12-22T19:30:23.222Z,9.40
2018-12-22T19:32:50.363Z,9.30
2018-12-22T19:35:17.511Z,9.20
2018-12-22T19:37:44.655Z,9.10
2018-12-22T19:40:11.791Z,9.00
2018-12-22T19:42:39.036Z,8.90
2018-12-22T19:45:06.466Z,8.70
2018-12-22T19:47:33.632Z,8.70
2018-12-22T19:50:00.762Z,8.70
2018-12-22T19:55:08.874Z,8.70
2018-12-22T19:57:36.014Z,8.80
2018-12-22T20:00:03.651Z,8.80
2018-12-22T20:02:30.802Z,8.80
2018-12-22T20:04:58.124Z,8.70
2018-12-22T20:07:25.316Z,8.80
2018-12-22T20:09:52.475Z,8.80
2018-12-22T20:12:19.728Z,8.80
2018-12-22T20:14:46.862Z,8.70
2018-12-22T20:17:14.138Z,8.70
2018-12-22T20:19:41.294Z,8.80
2018-12-22T20:22:08.444Z,8.90
2018-12-22T20:24:35.571Z,8.90
2018-12-22T20:27:02.730Z,9.00
2018-12-22T20:29:29.859Z,9.10
2018-12-22T20:31:56.990Z,9.10
2018-12-22T20:34:24.199Z,9.10
2018-12-22T20:36:51.434Z,9.10
2018-12-22T20:39:18.558Z,9.10
2018-12-22T20:41:45.811Z,9.10
2018-12-22T20:44:12.959Z,9.10
2018-12-22T20:46:40.114Z,9.20
2018-12-22T20:49:07.275Z,9.10
2018-12-22T20:51:34.527Z,9.20
2018-12-22T20:54:01.782Z,9.20
2018-12-22T20:56:28.944Z,9.30
2018-12-22T20:58:56.082Z,9.30
2018-12-22T21:01:23.228Z,9.20
2018-12-22T21:03:50.478Z,9.20
2018-12-22T21:06:22.922Z,9.10
2018-12-22T21:08:50.047Z,9.10
2018-12-22T21:11:17.313Z,9.20
2018-12-22T21:13:44.557Z,9.10
2018-12-22T21:16:11.782Z,9.10
2018-12-22T21:18:38.918Z,9.10
2018-12-22T21:21:06.114Z,8.90
2018-12-22T21:23:33.311Z,8.80
2018-12-22T21:26:00.474Z,8.70
2018-12-22T21:28:27.634Z,8.70
2018-12-22T21:30:54.790Z,8.70
2018-12-22T21:33:22.053Z,8.70
2018-12-22T21:35:53.201Z,8.70
2018-12-22T21:38:18.378Z,8.60
2018-12-22T21:40:45.518Z,8.50
2018-12-22T21:43:12.642Z,8.60
2018-12-22T21:45:39.815Z,8.50
2018-12-22T21:48:07.019Z,8.40
2018-12-22T21:50:34.188Z,8.40
2018-12-22T21:53:01.392Z,8.30
2018-12-22T21:55:28.627Z,8.20
2018-12-22T21:57:55.799Z,8.20
2018-12-22T22:00:22.943Z,8.20
2018-12-22T22:02:50.083Z,8.20
2018-12-22T22:05:17.210Z,8.10
2018-12-22T22:07:44.506Z,8.00
2018-12-22T22:10:11.738Z,8.10
2018-12-22T22:12:38.911Z,8.00
2018-12-22T22:15:06.455Z,8.00
2018-12-22T22:17:33.610Z,8.00
2018-12-22T22:20:00.746Z,7.90
2018-12-22T22:22:28.002Z,8.00
2018-12-22T22:24:55.135Z,8.00
2018-12-22T22:27:22.406Z,8.00
2018-12-22T22:29:49.545Z,7.90
2018-12-22T22:32:16.715Z,8.00
2018-12-22T22:34:45.654Z,8.00
2018-12-22T22:37:13.003Z,8.00
2018-12-22T22:39:40.142Z,8.00
2018-12-22T22:42:07.339Z,7.90
2018-12-22T22:44:34.470Z,7.90
2018-12-22T22:47:01.626Z,7.90
2018-12-22T22:49:28.806Z,7.90
2018-12-22T22:51:55.963Z,7.90
2018-12-22T22:54:23.149Z,8.00
2018-12-22T22:56:50.303Z,8.00
2018-12-22T22:59:17.508Z,7.90
2018-12-22T23:01:44.713Z,8.00
2018-12-22T23:04:11.962Z,8.00
2018-12-22T23:06:39.139Z,8.10
2018-12-22T23:09:06.842Z,8.10
2018-12-22T23:11:33.982Z,8.10
2018-12-22T23:14:01.110Z,8.20
2018-12-22T23:16:28.272Z,8.20
2018-12-22T23:18:55.437Z,8.30
2018-12-22T23:21:22.595Z,8.30
2018-12-22T23:23:49.738Z,8.30
2018-12-22T23:26:16.940Z,8.30
2018-12-22T23:28:44.078Z,8.30
2018-12-22T23:31:11.348Z,8.30
2018-12-22T23:33:38.559Z,8.30
2018-12-22T23:36:06.205Z,8.40
2018-12-22T23:38:33.491Z,8.40
2018-12-22T23:41:00.750Z,8.40
2018-12-22T23:43:27.920Z,8.50
2018-12-22T23:45:55.059Z,8.50
2018-12-22T23:48:22.238Z,8.50
2018-12-22T23:50:50.114Z,8.50
2018-12-22T23:53:17.286Z,8.50
2018-12-22T23:55:44.446Z,8.40
2018-12-22T23:58:11.632Z,8.40
